Airfield :
LOGIN :

Register | Disclaimer

   EN    FR    IT 

 










Legend :    VFR   Marginal VFR   IFR   Intensive IFR   Very Intensive IFR
Visi :
Ceiling :
>= 8 km
>= 3000ft
5 to 8 km
1000 to 3000 ft
1500m to 5 km
500 to 1000 ft
800 to 1500m
200 to 500 ft
< 800m
< 200 ft
Symbols :   Thunderstorms  Fog  Heavy snow  Heavy precipitations  Wind > 20 kt
SIGMETs :     Misc.  Thunderstorms  Icing  Turbulence  Mountain Waves  Volcanic Ashes







- Airport Elevation : 353 ft
- IATA code : LIN


LIML - Milano Linate

CURRENT METAR :
  • 181520Z VRB02KT 0250 R36/0450N FZFG BKN001 M00/M00 Q1027 NOSIG

EXPIRED METARs :
  • 181450Z 24004KT 210V270 0250 R36/0350N FZFG NSC M00/M00 Q1027 NOSIG
  • 181420Z 26004KT 0400 R36/0500N FZFG NSC M00/M00 Q1027 NOSIG
  • 181350Z 23004KT 190V270 0400 R36/0700N FZFG BKN002 M00/M00 Q1027 NOSIG
  • 181320Z 23004KT 200V260 0500 R36/0600N FZFG BKN002 M00/M00 Q1028 NOSIG
  • 181250Z 21004KT 180V250 0500 R36/0650N FG BKN002 00/00 Q1028 NOSIG

TAF TAF LIML
Valid from the 18 at 12:00 until the 19 at 12:00 UTC


181100Z 1812/1912 VRB05KT 0200 FZFG OVC001
TEMPO 1810/1815 1800 BR BKN005
No reported NOTAMs for that airfield.



MET'MAP, your aeronautical weather chart ! - Copyright ORBIFLY December 2007 - Disclaimer

ORBIFLY MET'MAP TEAM :

Programming & Development : Alexandra Zaïnal
Concept & Development : Baudouin d'Aumeries
Co-Development & Prog : Marc-Olivier Méhu
Technical & hardware support : Manuel Goepfert

Contact : metmap@orbifly.com




SOURCES & CREDITS :

   NOAA